createdAt,value
2019-01-09T00:00:55.467Z,931.71
2019-01-09T00:01:56.300Z,931.66
2019-01-09T00:02:57.436Z,931.66
2019-01-09T00:03:58.684Z,931.64
2019-01-09T00:04:59.387Z,931.54
2019-01-09T00:05:59.899Z,931.61
2019-01-09T00:07:00.587Z,931.66
2019-01-09T00:08:01.655Z,931.55
2019-01-09T00:09:02.076Z,931.55
2019-01-09T00:10:02.766Z,931.44
2019-01-09T00:11:03.180Z,931.56
2019-01-09T00:12:03.593Z,931.46
2019-01-09T00:13:04.283Z,931.45
2019-01-09T00:14:04.974Z,931.39
2019-01-09T00:15:05.390Z,931.28
2019-01-09T00:16:05.808Z,931.33
2019-01-09T00:17:06.500Z,931.19
2019-01-09T00:18:07.192Z,931.31
2019-01-09T00:19:08.329Z,931.43
2019-01-09T00:20:08.745Z,931.4
2019-01-09T00:21:09.159Z,931.38
2019-01-09T00:22:10.038Z,931.41
2019-01-09T00:23:10.456Z,931.42
2019-01-09T00:24:11.153Z,931.44
2019-01-09T00:25:12.293Z,931.41
2019-01-09T00:26:12.986Z,931.41
2019-01-09T00:27:13.680Z,931.34
2019-01-09T00:28:14.720Z,931.39
2019-01-09T00:29:15.858Z,931.44
2019-01-09T00:30:16.547Z,931.41
2019-01-09T00:31:16.964Z,931.41
2019-01-09T00:32:17.788Z,931.36
2019-01-09T00:33:18.757Z,931.4
2019-01-09T00:34:19.447Z,931.41
2019-01-09T00:35:20.416Z,931.38
2019-01-09T00:36:21.381Z,931.38
2019-01-09T00:37:21.628Z,931.36
2019-01-09T00:38:22.036Z,931.3
2019-01-09T00:39:22.730Z,931.39
2019-01-09T00:40:23.147Z,931.29
2019-01-09T00:41:24.117Z,931.4
2019-01-09T00:42:24.598Z,931.39
2019-01-09T00:43:25.381Z,931.36
2019-01-09T00:44:25.633Z,931.33
2019-01-09T00:45:26.388Z,931.3
2019-01-09T00:46:26.799Z,931.33
2019-01-09T00:47:27.491Z,931.33
2019-01-09T00:48:27.907Z,931.34
2019-01-09T00:49:28.321Z,931.33
2019-01-09T00:50:28.734Z,931.23
2019-01-09T00:51:29.226Z,931.29
2019-01-09T00:52:30.356Z,931.33
2019-01-09T00:53:31.497Z,931.37
2019-01-09T00:54:32.904Z,931.26
2019-01-09T00:55:34.043Z,931.26
2019-01-09T00:56:35.181Z,931.2
2019-01-09T00:57:35.591Z,931.17
2019-01-09T00:58:36.560Z,931.34
2019-01-09T00:59:37.695Z,931.17
2019-01-09T01:00:37.941Z,931.22
2019-01-09T01:01:38.369Z,931.27
2019-01-09T01:02:39.191Z,931.21
2019-01-09T01:03:40.162Z,931.27
2019-01-09T01:04:40.627Z,931.15
2019-01-09T01:05:46.599Z,931.16
2019-01-09T01:05:53.338Z,931.16
2019-01-09T01:06:54.436Z,931.21
2019-01-09T01:07:55.851Z,931.2
2019-01-09T01:08:56.822Z,931.23
2019-01-09T01:09:57.243Z,931.19
2019-01-09T01:10:57.929Z,931.18
2019-01-09T01:11:58.620Z,931.22
2019-01-09T01:12:59.044Z,931.22
2019-01-09T01:14:00.072Z,931.16
2019-01-09T01:15:01.209Z,931.18
2019-01-09T01:16:02.177Z,931.23
2019-01-09T01:17:02.376Z,931.2
2019-01-09T01:18:03.069Z,931.15
2019-01-09T01:19:04.039Z,931.17
2019-01-09T01:20:05.195Z,931.21
2019-01-09T01:21:05.335Z,931.13
2019-01-09T01:22:05.750Z,931.11
2019-01-09T01:23:06.505Z,931.12
2019-01-09T01:24:06.919Z,931.17
2019-01-09T01:25:07.331Z,931.15
2019-01-09T01:26:08.305Z,931.13
2019-01-09T01:27:08.506Z,931.15
2019-01-09T01:28:09.198Z,931.11
2019-01-09T01:29:10.170Z,931.09
2019-01-09T01:30:10.947Z,931.18
2019-01-09T01:31:11.638Z,931.16
2019-01-09T01:32:12.360Z,931.06
2019-01-09T01:33:13.050Z,931.05
2019-01-09T01:34:13.743Z,931.08
2019-01-09T01:35:14.875Z,931.08
2019-01-09T01:36:15.124Z,931.02
2019-01-09T01:37:16.270Z,931.07
2019-01-09T01:38:17.410Z,931.07
2019-01-09T01:39:18.547Z,931.13
2019-01-09T01:40:19.514Z,931.09
2019-01-09T01:41:19.927Z,931.06
2019-01-09T01:42:20.617Z,931.08
2019-01-09T01:43:21.313Z,931.09
2019-01-09T01:44:21.727Z,931.01
2019-01-09T01:45:22.422Z,931.09
2019-01-09T01:46:22.848Z,931.09
2019-01-09T01:47:23.118Z,931.09
2019-01-09T01:48:23.813Z,931.01
2019-01-09T01:49:24.036Z,931.04
2019-01-09T01:50:24.728Z,931.05
2019-01-09T01:51:26.145Z,931.02
2019-01-09T01:52:26.649Z,931.05
2019-01-09T01:53:28.061Z,931.01
2019-01-09T01:54:29.028Z,930.94
2019-01-09T01:55:29.716Z,931.01
2019-01-09T01:56:30.127Z,931.04
2019-01-09T01:57:31.230Z,930.99
2019-01-09T01:58:32.199Z,931.09
2019-01-09T01:59:32.693Z,930.98
2019-01-09T02:00:33.385Z,930.95
2019-01-09T02:01:33.805Z,930.95
2019-01-09T02:02:34.584Z,930.93
2019-01-09T02:03:35.000Z,931
2019-01-09T02:04:35.691Z,930.98
2019-01-09T02:05:36.449Z,930.99
2019-01-09T02:06:36.866Z,930.9
2019-01-09T02:07:37.276Z,930.89
2019-01-09T02:08:37.968Z,930.87
2019-01-09T02:09:38.462Z,930.9
2019-01-09T02:10:39.599Z,930.86
2019-01-09T02:11:40.574Z,930.94
2019-01-09T02:12:41.547Z,930.9
2019-01-09T02:13:42.766Z,930.8
2019-01-09T02:14:43.902Z,930.82
2019-01-09T02:15:44.320Z,930.89
2019-01-09T02:16:45.454Z,930.78
2019-01-09T02:17:46.290Z,930.85
2019-01-09T02:18:46.705Z,930.87
2019-01-09T02:19:47.118Z,930.85
2019-01-09T02:20:48.258Z,930.83
2019-01-09T02:21:48.949Z,930.89
2019-01-09T02:22:49.725Z,930.84
2019-01-09T02:23:50.857Z,930.85
2019-01-09T02:24:51.861Z,930.78
2019-01-09T02:25:52.098Z,930.74
2019-01-09T02:26:52.513Z,930.73
2019-01-09T02:27:53.388Z,930.66
2019-01-09T02:28:54.083Z,930.73
2019-01-09T02:29:54.783Z,930.63
2019-01-09T02:30:55.306Z,930.6
2019-01-09T02:31:56.003Z,930.62
2019-01-09T02:32:56.420Z,930.59
2019-01-09T02:33:57.109Z,930.6
2019-01-09T02:34:57.536Z,930.58
2019-01-09T02:35:57.795Z,930.54
2019-01-09T02:36:58.766Z,930.69
2019-01-09T02:37:59.901Z,930.57
2019-01-09T02:39:00.428Z,930.55
2019-01-09T02:40:01.408Z,930.62
2019-01-09T02:41:02.661Z,930.57
2019-01-09T02:42:04.110Z,930.59
2019-01-09T02:43:05.246Z,930.55
2019-01-09T02:44:05.519Z,930.61
2019-01-09T02:45:06.935Z,930.59
2019-01-09T02:46:07.355Z,930.58
2019-01-09T02:47:07.772Z,930.59
2019-01-09T02:48:08.390Z,930.48
2019-01-09T02:49:09.355Z,930.5
2019-01-09T02:50:10.268Z,930.62
2019-01-09T02:51:10.796Z,930.48
2019-01-09T02:52:11.764Z,930.53
2019-01-09T02:53:12.831Z,930.53
2019-01-09T02:54:14.077Z,930.45
2019-01-09T02:55:14.769Z,930.49
2019-01-09T02:56:15.316Z,930.54
2019-01-09T02:57:16.360Z,930.51
2019-01-09T02:58:01.072Z,930.37
2019-01-09T02:59:02.079Z,930.52
2019-01-09T03:00:03.589Z,930.5
2019-01-09T03:01:03.842Z,930.57
2019-01-09T03:02:04.819Z,930.51
2019-01-09T03:03:05.532Z,930.49
2019-01-09T03:04:06.349Z,930.45
2019-01-09T03:05:06.757Z,930.5
2019-01-09T03:06:07.451Z,930.37
2019-01-09T03:07:07.983Z,930.44
2019-01-09T03:08:08.514Z,930.4
2019-01-09T03:09:08.748Z,930.42
2019-01-09T03:10:09.735Z,930.4
2019-01-09T03:11:11.073Z,930.41
2019-01-09T03:12:11.766Z,930.41
2019-01-09T03:13:12.307Z,930.38
2019-01-09T03:14:12.721Z,930.3
2019-01-09T03:15:13.968Z,930.4
2019-01-09T03:16:14.538Z,930.43
2019-01-09T03:17:14.949Z,930.28
2019-01-09T03:18:15.921Z,930.25
2019-01-09T03:19:17.025Z,930.33
2019-01-09T03:20:17.752Z,930.3
2019-01-09T03:21:18.166Z,930.23
2019-01-09T03:22:19.280Z,930.22
2019-01-09T03:23:19.976Z,930.18
2019-01-09T03:24:20.949Z,930.05
2019-01-09T03:25:21.763Z,930.13
2019-01-09T03:26:22.900Z,930.21
2019-01-09T03:27:23.588Z,930.08
2019-01-09T03:28:24.098Z,930.09
2019-01-09T03:29:24.568Z,929.98
2019-01-09T03:30:25.718Z,930.08
2019-01-09T03:31:26.551Z,930.04
2019-01-09T03:32:27.400Z,930.1
2019-01-09T03:33:28.281Z,930.12
2019-01-09T03:34:28.692Z,930.04
2019-01-09T03:35:29.387Z,930.04
2019-01-09T03:36:33.769Z,930.09
2019-01-09T03:37:34.752Z,930.09
2019-01-09T03:38:35.161Z,930.07
2019-01-09T03:39:35.565Z,930.04
2019-01-09T03:40:36.355Z,930.03
2019-01-09T03:41:37.611Z,930.02
2019-01-09T03:42:38.586Z,930
2019-01-09T03:43:39.282Z,930.04
2019-01-09T03:44:40.419Z,930.07
2019-01-09T03:45:41.392Z,930.05
2019-01-09T03:46:41.808Z,930.07
2019-01-09T03:47:42.240Z,930.02
2019-01-09T03:48:42.928Z,930.03
2019-01-09T03:49:44.049Z,930.01
2019-01-09T03:50:44.749Z,929.95
2019-01-09T03:51:45.739Z,929.92
2019-01-09T03:52:46.714Z,929.89
2019-01-09T03:53:47.694Z,929.86
2019-01-09T03:54:48.941Z,929.84
2019-01-09T03:55:49.908Z,929.88
2019-01-09T03:56:50.149Z,929.72
2019-01-09T03:57:50.888Z,929.77
2019-01-09T03:58:51.238Z,929.85
2019-01-09T03:59:51.498Z,929.8
2019-01-09T04:00:52.467Z,929.78
2019-01-09T04:01:53.156Z,929.76
2019-01-09T04:02:53.846Z,929.81
2019-01-09T04:03:54.276Z,929.76
2019-01-09T04:04:54.971Z,929.76
2019-01-09T04:05:55.942Z,929.69
2019-01-09T04:06:56.190Z,930.02
2019-01-09T04:07:56.882Z,929.68
2019-01-09T04:08:57.415Z,929.65
2019-01-09T04:09:58.244Z,929.67
2019-01-09T04:10:58.940Z,929.66
2019-01-09T04:11:59.356Z,929.66
2019-01-09T04:13:00.328Z,929.7
2019-01-09T04:14:01.302Z,929.63
2019-01-09T04:15:02.126Z,929.56
2019-01-09T04:16:02.967Z,929.53
2019-01-09T04:17:03.958Z,929.51
2019-01-09T04:18:04.654Z,929.5
2019-01-09T04:19:05.088Z,929.51
2019-01-09T04:20:06.517Z,929.47
2019-01-09T04:21:07.650Z,929.4
2019-01-09T04:22:08.701Z,929.45
2019-01-09T04:23:08.946Z,929.47
2019-01-09T04:24:09.915Z,929.43
2019-01-09T04:25:10.615Z,929.37
2019-01-09T04:26:11.145Z,929.31
2019-01-09T04:27:12.418Z,929.31
2019-01-09T04:28:12.831Z,929.27
2019-01-09T04:29:13.013Z,929.3
2019-01-09T04:30:13.878Z,929.27
2019-01-09T04:31:14.846Z,929.25
2019-01-09T04:32:15.552Z,929.18
2019-01-09T04:33:15.965Z,929.14
2019-01-09T04:34:16.664Z,929.26
2019-01-09T04:35:17.078Z,929.16
2019-01-09T04:36:18.107Z,929.17
2019-01-09T04:37:19.094Z,929.2
2019-01-09T04:38:19.780Z,929.25
2019-01-09T04:39:20.033Z,929.2
2019-01-09T04:40:21.188Z,929.16
2019-01-09T04:41:21.873Z,929.13
2019-01-09T04:42:22.286Z,929.04
2019-01-09T04:43:23.268Z,929.09
2019-01-09T04:44:24.245Z,929.11
2019-01-09T04:45:24.983Z,929.17
2019-01-09T04:46:25.640Z,929.05
2019-01-09T04:47:26.057Z,928.99
2019-01-09T04:48:26.748Z,929.11
2019-01-09T04:49:27.444Z,929.03
2019-01-09T04:50:28.671Z,929.08
2019-01-09T04:51:29.382Z,929.11
2019-01-09T04:52:29.876Z,929.06
2019-01-09T04:53:31.012Z,929.11
2019-01-09T04:54:31.984Z,929.14
2019-01-09T04:55:32.971Z,929.07
2019-01-09T06:42:48.366Z,928.75
2019-01-09T06:43:49.622Z,928.86
2019-01-09T06:44:50.065Z,928.77
2019-01-09T06:45:50.755Z,928.82
2019-01-09T06:46:51.443Z,928.82
2019-01-09T06:47:51.874Z,928.76
2019-01-09T06:48:52.903Z,928.84
2019-01-09T06:49:53.653Z,928.72
2019-01-09T06:50:54.079Z,928.76
2019-01-09T06:51:55.140Z,928.76
2019-01-09T06:52:56.163Z,928.76
2019-01-09T06:53:57.786Z,928.76
2019-01-09T06:54:58.996Z,928.8
2019-01-09T06:55:59.650Z,928.77
2019-01-09T06:57:00.267Z,928.75
2019-01-09T06:58:02.349Z,928.75
2019-01-09T06:59:02.281Z,928.76
2019-01-09T07:00:03.360Z,928.75
2019-01-09T07:01:04.601Z,928.76
2019-01-09T07:02:05.289Z,928.79
2019-01-09T07:03:06.384Z,928.79
2019-01-09T07:04:06.793Z,928.84
2019-01-09T07:05:07.490Z,928.84
2019-01-09T07:06:07.908Z,928.75
2019-01-09T07:07:09.037Z,928.81
2019-01-09T07:08:09.724Z,928.82
2019-01-09T07:09:10.415Z,928.83
2019-01-09T07:10:11.430Z,928.79
2019-01-09T07:11:11.903Z,928.75
2019-01-09T07:12:12.721Z,928.79
2019-01-09T07:13:13.285Z,928.83
2019-01-09T07:14:13.979Z,928.87
2019-01-09T07:15:14.391Z,928.86
2019-01-09T07:16:14.841Z,928.73
2019-01-09T07:17:16.263Z,928.72
2019-01-09T07:18:17.888Z,928.71
2019-01-09T07:19:18.299Z,928.73
2019-01-09T07:20:18.949Z,928.75
2019-01-09T07:21:19.957Z,928.71
2019-01-09T07:22:20.817Z,928.73
2019-01-09T07:23:21.029Z,928.77
2019-01-09T07:24:21.580Z,928.66
2019-01-09T07:25:22.575Z,928.69
2019-01-09T07:26:23.785Z,928.68
2019-01-09T07:27:24.701Z,928.67
2019-01-09T07:28:24.926Z,928.55
2019-01-09T07:29:26.027Z,928.65
2019-01-09T07:30:26.715Z,928.66
2019-01-09T07:31:27.128Z,928.7
2019-01-09T07:32:27.544Z,928.67
2019-01-09T07:33:28.636Z,928.67
2019-01-09T07:34:29.740Z,928.7
2019-01-09T07:35:30.906Z,928.67
2019-01-09T07:36:31.701Z,928.7
2019-01-09T07:37:32.037Z,928.66
2019-01-09T07:38:33.522Z,928.64
2019-01-09T07:39:33.787Z,928.68
2019-01-09T07:40:34.199Z,928.67
2019-01-09T07:41:35.168Z,928.66
2019-01-09T07:42:36.134Z,928.68
2019-01-09T07:43:37.225Z,928.67
2019-01-09T07:44:37.830Z,928.69
2019-01-09T07:45:38.460Z,928.73
2019-01-09T07:46:39.982Z,928.65
2019-01-09T07:47:40.960Z,928.75
2019-01-09T07:48:41.374Z,928.73
2019-01-09T07:49:42.247Z,928.84
2019-01-09T07:50:42.640Z,928.86
2019-01-09T07:51:43.434Z,928.78
2019-01-09T07:52:46.853Z,928.83
2019-01-09T07:52:57.119Z,928.8
2019-01-09T07:53:09.923Z,928.81
2019-01-09T07:53:21.133Z,928.77
2019-01-09T07:54:21.867Z,928.85
2019-01-09T07:55:22.048Z,928.85
2019-01-09T07:56:22.812Z,928.82
2019-01-09T07:57:23.219Z,928.86
2019-01-09T07:58:23.631Z,928.9
2019-01-09T07:59:25.534Z,928.93
2019-01-09T08:00:26.228Z,928.94
2019-01-09T08:01:26.731Z,928.84
2019-01-09T08:02:27.419Z,928.88
2019-01-09T08:03:27.830Z,928.88
2019-01-09T08:04:29.224Z,928.88
2019-01-09T08:05:30.146Z,928.96
2019-01-09T08:06:30.556Z,928.93
2019-01-09T08:07:30.802Z,928.94
2019-01-09T08:08:31.945Z,928.98
2019-01-09T08:09:32.911Z,928.91
2019-01-09T08:10:33.965Z,928.97
2019-01-09T08:11:34.383Z,928.98
2019-01-09T08:12:34.804Z,929.03
2019-01-09T08:13:35.935Z,929.05
2019-01-09T08:14:37.030Z,929.07
2019-01-09T08:15:37.448Z,929.02
2019-01-09T08:16:37.951Z,929
2019-01-09T08:17:38.622Z,929.03
2019-01-09T08:18:39.130Z,929.02
2019-01-09T08:19:39.612Z,929.06
2019-01-09T08:20:40.159Z,929.11
2019-01-09T08:21:41.348Z,929.17
2019-01-09T08:22:42.291Z,929.21
2019-01-09T08:23:42.778Z,929.29
2019-01-09T08:24:43.325Z,929.29
2019-01-09T08:25:43.648Z,929.22
2019-01-09T08:26:45.414Z,929.27
2019-01-09T08:26:56.613Z,929.19
2019-01-09T08:27:08.964Z,929.29
2019-01-09T08:27:20.802Z,929.28
2019-01-09T08:27:32.420Z,929.23
2019-01-09T08:28:33.091Z,929.32
2019-01-09T08:29:33.785Z,929.27
2019-01-09T08:30:34.199Z,929.32
2019-01-09T08:31:34.974Z,929.29
2019-01-09T08:32:35.705Z,929.27
2019-01-09T08:33:37.135Z,929.31
2019-01-09T08:34:37.550Z,929.29
2019-01-09T08:35:38.688Z,929.37
2019-01-09T08:36:39.694Z,929.32
2019-01-09T08:37:40.451Z,929.39
2019-01-09T08:38:41.412Z,929.4
2019-01-09T08:39:42.492Z,929.42
2019-01-09T08:40:42.941Z,929.45
2019-01-09T08:41:43.364Z,929.49
2019-01-09T08:42:44.052Z,929.5
2019-01-09T08:43:44.488Z,929.56
2019-01-09T08:44:45.077Z,929.54
2019-01-09T08:45:45.624Z,929.57
2019-01-09T08:46:46.317Z,929.56
2019-01-09T08:47:46.842Z,929.57
2019-01-09T08:48:47.383Z,929.52
2019-01-09T08:49:47.799Z,929.62
2019-01-09T08:50:49.211Z,929.59
2019-01-09T08:51:49.678Z,929.65
2019-01-09T08:52:50.371Z,929.65
2019-01-09T08:53:50.854Z,929.64
2019-01-09T08:54:51.103Z,929.68
2019-01-09T08:55:52.236Z,929.74
2019-01-09T08:56:52.926Z,929.69
2019-01-09T08:57:53.341Z,929.75
2019-01-09T08:58:53.883Z,929.81
2019-01-09T08:59:54.854Z,929.84
2019-01-09T09:00:55.822Z,929.83
2019-01-09T09:01:57.257Z,929.84
2019-01-09T09:02:57.675Z,929.91
2019-01-09T09:03:58.368Z,929.94
2019-01-09T09:04:58.615Z,929.91
2019-01-09T09:05:59.578Z,929.9
2019-01-09T09:06:59.824Z,929.85
2019-01-09T09:08:00.516Z,929.91
2019-01-09T09:09:00.856Z,929.93
2019-01-09T09:10:01.114Z,929.96
2019-01-09T09:11:02.098Z,929.98
2019-01-09T09:12:02.786Z,929.98
2019-01-09T09:13:03.475Z,930.03
2019-01-09T09:14:04.164Z,930.03
2019-01-09T09:15:04.801Z,930.05
2019-01-09T09:16:05.768Z,930.06
2019-01-09T09:17:06.805Z,929.97
2019-01-09T09:18:08.062Z,930.04
2019-01-09T09:19:08.604Z,930.01
2019-01-09T09:20:09.866Z,930.03
2019-01-09T09:21:10.572Z,930.1
2019-01-09T09:22:11.711Z,930.1
2019-01-09T09:23:12.691Z,930.12
2019-01-09T09:24:13.107Z,930.18
2019-01-09T09:25:14.240Z,930.16
2019-01-09T09:26:15.308Z,930.19
2019-01-09T09:27:15.813Z,930.24
2019-01-09T09:28:16.339Z,930.24
2019-01-09T09:29:16.996Z,930.28
2019-01-09T09:30:17.687Z,930.28
2019-01-09T09:31:18.382Z,930.33
2019-01-09T09:32:18.998Z,930.3
2019-01-09T09:33:19.926Z,930.33
2019-01-09T09:34:20.201Z,930.35
2019-01-09T09:35:20.617Z,930.35
2019-01-09T09:36:20.849Z,930.42
2019-01-09T09:37:21.791Z,930.38
2019-01-09T09:38:22.536Z,930.46
2019-01-09T09:39:23.397Z,930.47
2019-01-09T09:40:24.095Z,930.4
2019-01-09T09:41:24.810Z,930.37
2019-01-09T09:42:25.948Z,930.38
2019-01-09T09:43:27.362Z,930.36
2019-01-09T09:44:27.780Z,930.39
2019-01-09T09:45:28.751Z,930.35
2019-01-09T09:46:29.998Z,930.45
2019-01-09T09:47:30.502Z,930.51
2019-01-09T09:48:30.925Z,930.55
2019-01-09T09:49:31.851Z,930.43
2019-01-09T09:50:33.081Z,930.51
2019-01-09T09:51:34.046Z,930.55
2019-01-09T09:52:34.736Z,930.51
2019-01-09T09:53:35.517Z,930.49
2019-01-09T09:54:35.719Z,930.43
2019-01-09T09:55:36.686Z,930.35
2019-01-09T09:56:37.101Z,930.41
2019-01-09T09:57:37.793Z,930.32
2019-01-09T09:58:38.954Z,930.35
2019-01-09T09:59:40.110Z,930.38
2019-01-09T10:00:40.997Z,930.37
2019-01-09T10:01:42.332Z,930.37
2019-01-09T10:02:43.313Z,930.42
2019-01-09T10:03:44.000Z,930.44
2019-01-09T10:04:44.541Z,930.39
2019-01-09T10:05:44.790Z,930.36
2019-01-09T10:06:45.530Z,930.35
2019-01-09T10:07:46.862Z,930.32
2019-01-09T10:08:47.284Z,930.35
2019-01-09T10:09:48.159Z,930.31
2019-01-09T10:10:48.798Z,930.29
2019-01-09T10:11:49.935Z,930.3
2019-01-09T10:12:50.349Z,930.27
2019-01-09T10:13:51.050Z,930.31
2019-01-09T10:14:51.809Z,930.31
2019-01-09T10:15:54.167Z,930.31
2019-01-09T10:16:04.677Z,930.31
2019-01-09T10:17:06.049Z,930.33
2019-01-09T10:18:06.797Z,930.27
2019-01-09T10:19:07.217Z,930.32
2019-01-09T10:20:08.185Z,930.33
2019-01-09T10:21:08.660Z,930.3
2019-01-09T10:22:09.376Z,930.26
2019-01-09T10:23:10.349Z,930.25
2019-01-09T10:24:11.084Z,930.25
2019-01-09T10:25:11.783Z,930.18
2019-01-09T10:26:12.202Z,930.21
2019-01-09T10:27:13.445Z,930.18
2019-01-09T10:28:13.678Z,930.16
2019-01-09T10:29:14.650Z,930.15
2019-01-09T10:30:15.345Z,930.13
2019-01-09T10:31:15.635Z,930.09
2019-01-09T10:32:16.628Z,930.14
2019-01-09T10:33:17.321Z,930.11
2019-01-09T10:34:18.013Z,930.08
2019-01-09T10:35:18.445Z,930.13
2019-01-09T10:36:19.250Z,930.13
2019-01-09T10:37:20.380Z,930.05
2019-01-09T10:38:21.183Z,930.08
2019-01-09T10:39:21.895Z,930.06
2019-01-09T10:40:22.366Z,930.02
2019-01-09T10:41:23.101Z,930.03
2019-01-09T10:42:24.074Z,930.03
2019-01-09T10:43:24.738Z,930.01
2019-01-09T10:44:25.153Z,930.01
2019-01-09T10:45:26.291Z,929.98
2019-01-09T10:46:27.061Z,929.96
2019-01-09T10:47:29.131Z,929.97
2019-01-09T10:48:30.860Z,929.96
2019-01-09T10:48:42.577Z,929.97
2019-01-09T10:49:43.422Z,929.95
2019-01-09T10:50:44.671Z,929.98
2019-01-09T10:51:45.093Z,929.96
2019-01-09T10:52:45.831Z,929.96
2019-01-09T10:53:46.312Z,929.96
2019-01-09T10:54:46.571Z,929.91
2019-01-09T10:55:46.885Z,929.93
2019-01-09T10:56:47.593Z,929.91
2019-01-09T10:57:48.135Z,929.89
2019-01-09T10:58:49.967Z,929.94
2019-01-09T10:59:51.042Z,929.87
2019-01-09T11:00:51.178Z,929.86
2019-01-09T11:01:51.969Z,929.85
2019-01-09T11:02:52.311Z,929.84
2019-01-09T11:03:53.173Z,929.86
2019-01-09T11:04:53.827Z,929.82
2019-01-09T11:05:54.238Z,929.81
2019-01-09T11:06:54.652Z,929.83
2019-01-09T11:07:55.081Z,929.8
2019-01-09T11:08:55.823Z,929.81
2019-01-09T11:09:56.677Z,929.78
2019-01-09T11:10:56.971Z,929.82
2019-01-09T11:11:57.408Z,929.78
2019-01-09T11:12:57.941Z,929.78
2019-01-09T11:13:58.637Z,929.78
2019-01-09T11:14:59.770Z,929.75
2019-01-09T11:16:00.037Z,929.72
2019-01-09T11:17:00.274Z,929.71
2019-01-09T11:18:02.007Z,929.73
2019-01-09T11:19:02.524Z,929.7
2019-01-09T11:20:02.787Z,929.66
2019-01-09T11:21:03.967Z,929.72
2019-01-09T11:22:04.665Z,929.67
2019-01-09T11:23:05.971Z,929.67
2019-01-09T11:24:06.691Z,929.66
2019-01-09T11:25:07.382Z,929.68
2019-01-09T11:26:07.799Z,929.63
2019-01-09T11:27:08.771Z,929.63
2019-01-09T11:28:09.809Z,929.64
2019-01-09T11:29:10.858Z,929.65
2019-01-09T11:30:11.530Z,929.68
2019-01-09T11:31:11.944Z,929.65
2019-01-09T11:32:12.363Z,929.67
2019-01-09T11:33:13.616Z,929.64
2019-01-09T11:34:14.722Z,929.67
2019-01-09T11:35:15.778Z,929.66
2019-01-09T11:36:16.253Z,929.68
2019-01-09T11:37:18.717Z,929.67
2019-01-09T11:38:18.787Z,929.64
2019-01-09T11:39:19.924Z,929.67
2019-01-09T11:40:21.080Z,929.7
2019-01-09T11:41:21.681Z,929.68
2019-01-09T11:42:22.816Z,929.72
2019-01-09T11:43:23.618Z,929.74
2019-01-09T11:44:24.842Z,929.7
2019-01-09T11:45:25.851Z,929.72
2019-01-09T11:46:26.312Z,929.63
2019-01-09T11:47:26.546Z,929.67
2019-01-09T11:48:27.682Z,929.7
2019-01-09T11:49:28.379Z,929.65
2019-01-09T11:50:29.420Z,929.64
2019-01-09T11:51:30.199Z,929.64
2019-01-09T11:52:30.613Z,929.66
2019-01-09T11:53:31.304Z,929.63
2019-01-09T11:54:31.997Z,929.62
2019-01-09T11:55:32.729Z,929.61
2019-01-09T11:56:33.786Z,929.61
2019-01-09T11:57:35.004Z,929.64
2019-01-09T11:58:36.154Z,929.63
2019-01-09T11:59:37.569Z,929.61
2019-01-09T12:00:38.024Z,929.57
2019-01-09T12:01:38.698Z,929.59
2019-01-09T12:02:39.383Z,929.59
2019-01-09T12:03:40.419Z,929.61
2019-01-09T12:04:40.859Z,929.57
2019-01-09T12:05:41.527Z,929.56
2019-01-09T12:06:42.131Z,929.53
2019-01-09T12:07:42.354Z,929.57
2019-01-09T12:08:43.329Z,929.53
2019-01-09T12:09:44.023Z,929.51
2019-01-09T12:10:45.244Z,929.55
2019-01-09T12:11:45.525Z,929.49
2019-01-09T12:12:46.379Z,929.53
2019-01-09T12:13:47.383Z,929.52
2019-01-09T12:13:58.644Z,929.53
2019-01-09T12:14:59.540Z,929.55
2019-01-09T12:16:08.695Z,929.54
2019-01-09T12:16:11.936Z,929.51
2019-01-09T12:17:12.500Z,929.5
2019-01-09T12:18:13.656Z,929.49
2019-01-09T12:19:14.576Z,929.51
2019-01-09T12:20:15.275Z,929.49
2019-01-09T12:21:17.281Z,929.54
2019-01-09T12:22:17.782Z,929.54
2019-01-09T12:23:18.098Z,929.57
2019-01-09T12:24:18.434Z,929.53
2019-01-09T12:25:19.140Z,929.52
2019-01-09T12:26:19.650Z,929.55
2019-01-09T12:27:20.759Z,929.54
2019-01-09T12:28:21.175Z,929.53
2019-01-09T12:29:22.160Z,929.51
2019-01-09T12:30:23.307Z,929.58
2019-01-09T12:31:24.285Z,929.56
2019-01-09T12:32:24.816Z,929.55
2019-01-09T12:33:26.324Z,929.55
2019-01-09T12:34:27.382Z,929.61
2019-01-09T12:35:28.074Z,929.62
2019-01-09T12:36:28.490Z,929.59
2019-01-09T12:37:29.316Z,929.54
2019-01-09T12:38:30.027Z,929.56
2019-01-09T12:39:30.740Z,929.62
2019-01-09T12:40:31.158Z,929.6
2019-01-09T12:41:31.784Z,929.58
2019-01-09T12:42:31.960Z,929.6
2019-01-09T12:43:32.974Z,929.55
2019-01-09T12:44:34.111Z,929.6
2019-01-09T12:45:36.305Z,929.63
2019-01-09T12:45:47.338Z,929.64
2019-01-09T12:46:48.954Z,929.67
2019-01-09T12:47:00.656Z,929.6
2019-01-09T12:47:12.970Z,929.66
2019-01-09T12:47:24.402Z,929.64
2019-01-09T12:48:25.457Z,929.65
2019-01-09T12:49:26.614Z,929.67
2019-01-09T12:50:27.127Z,929.66
2019-01-09T12:51:28.565Z,929.73
2019-01-09T12:52:28.706Z,929.68
2019-01-09T12:53:34.416Z,929.71
2019-01-09T12:53:41.070Z,929.68
2019-01-09T12:54:41.246Z,929.73
2019-01-09T12:55:41.494Z,929.72
2019-01-09T12:56:41.912Z,929.74
2019-01-09T12:57:42.621Z,929.76
2019-01-09T12:58:43.664Z,929.75
2019-01-09T12:59:44.139Z,929.8
2019-01-09T13:00:45.277Z,929.8
2019-01-09T13:01:47.350Z,929.8
2019-01-09T13:02:48.029Z,929.8
2019-01-09T13:03:48.445Z,929.77
2019-01-09T13:04:48.779Z,929.82
2019-01-09T13:05:49.486Z,929.8
2019-01-09T13:06:50.260Z,929.84
2019-01-09T13:07:50.683Z,929.8
2019-01-09T13:08:51.648Z,929.79
2019-01-09T13:09:52.643Z,929.78
2019-01-09T13:10:53.783Z,929.89
2019-01-09T13:11:54.474Z,929.87
2019-01-09T13:12:54.891Z,929.89
2019-01-09T13:13:56.374Z,929.9
2019-01-09T13:14:56.633Z,929.86
2019-01-09T13:15:58.050Z,929.92
2019-01-09T13:16:59.189Z,929.94
2019-01-09T13:18:00.329Z,929.94
2019-01-09T13:19:01.312Z,929.96
2019-01-09T13:20:02.376Z,929.96
2019-01-09T13:21:03.348Z,929.97
2019-01-09T13:22:03.767Z,930.03
2019-01-09T13:23:05.120Z,929.97
2019-01-09T13:24:05.899Z,929.96
2019-01-09T13:25:06.197Z,930.08
2019-01-09T13:26:06.482Z,930.08
2019-01-09T13:27:07.189Z,930.1
2019-01-09T13:28:07.728Z,930.1
2019-01-09T13:29:08.123Z,930.06
2019-01-09T13:30:09.510Z,930.1
2019-01-09T13:31:09.904Z,930.07
2019-01-09T13:32:10.326Z,930.1
2019-01-09T13:33:11.322Z,930.11
2019-01-09T13:34:11.571Z,930.05
2019-01-09T13:35:12.449Z,930.07
2019-01-09T13:36:13.582Z,930.06
2019-01-09T13:37:14.100Z,930.09
2019-01-09T13:38:15.116Z,930.07
2019-01-09T13:39:15.686Z,930.03
2019-01-09T13:40:16.129Z,930.12
2019-01-09T13:41:17.212Z,930.1
2019-01-09T13:42:18.693Z,930.12
2019-01-09T13:43:19.472Z,930.14
2019-01-09T13:44:20.205Z,930.12
2019-01-09T13:45:20.388Z,930.13
2019-01-09T13:46:20.931Z,930.12
2019-01-09T13:47:22.386Z,930.15
2019-01-09T13:47:32.863Z,930.13
2019-01-09T13:48:33.147Z,930.15
2019-01-09T13:49:33.721Z,930.21
2019-01-09T13:50:37.695Z,930.2
2019-01-09T13:51:40.346Z,930.24
2019-01-09T13:51:51.478Z,930.22
2019-01-09T13:52:51.165Z,930.22
2019-01-09T13:53:51.591Z,930.25
2019-01-09T13:54:52.844Z,930.23
2019-01-09T13:55:53.827Z,930.31
2019-01-09T13:56:56.475Z,930.3
2019-01-09T13:57:57.898Z,930.28
2019-01-09T13:58:07.767Z,930.32
2019-01-09T13:59:09.771Z,930.31
2019-01-09T13:59:20.425Z,930.3
2019-01-09T14:00:21.109Z,930.33
2019-01-09T14:01:21.583Z,930.34
2019-01-09T14:02:22.308Z,930.34
2019-01-09T14:03:23.121Z,930.36
2019-01-09T14:04:23.764Z,930.4
2019-01-09T14:05:24.878Z,930.37
2019-01-09T14:06:25.721Z,930.38
2019-01-09T14:07:26.050Z,930.41
2019-01-09T14:08:26.739Z,930.43
2019-01-09T14:09:27.153Z,930.48
2019-01-09T14:10:27.719Z,930.47